createdAt,value
2019-04-01T00:00:42.889Z,5.98
2019-04-01T00:01:42.878Z,6.04
2019-04-01T00:02:42.915Z,5.94
2019-04-01T00:03:42.852Z,6.09
2019-04-01T00:04:42.840Z,6.01
2019-04-01T00:05:42.829Z,6.01
2019-04-01T00:06:42.822Z,5.94
2019-04-01T00:07:42.860Z,5.91
2019-04-01T00:08:42.793Z,5.93
2019-04-01T00:09:42.797Z,5.94
2019-04-01T00:10:42.768Z,5.93
2019-04-01T00:11:42.755Z,5.99
2019-04-01T00:12:42.793Z,5.93
2019-04-01T00:13:42.732Z,5.98
2019-04-01T00:14:42.722Z,5.98
2019-04-01T00:15:42.706Z,5.94
2019-04-01T00:16:42.695Z,5.90
2019-04-01T00:17:42.682Z,6.01
2019-04-01T00:18:42.672Z,5.93
2019-04-01T00:19:42.658Z,5.94
2019-04-01T00:20:42.645Z,5.99
2019-04-01T00:21:44.567Z,5.99
2019-04-01T00:22:42.686Z,6.02
2019-04-01T00:23:42.658Z,5.99
2019-04-01T00:24:42.600Z,5.93
2019-04-01T00:25:42.584Z,5.91
2019-04-01T00:26:42.571Z,5.99
2019-04-01T00:27:42.559Z,5.98
2019-04-01T00:28:42.597Z,5.90
2019-04-01T00:29:42.534Z,5.97
2019-04-01T00:30:42.523Z,5.91
2019-04-01T00:31:42.511Z,5.94
2019-04-01T00:32:42.497Z,5.90
2019-04-01T00:33:42.535Z,5.87
2019-04-01T00:34:42.473Z,5.82
2019-04-01T00:35:42.459Z,5.82
2019-04-01T00:36:42.446Z,5.86
2019-04-01T00:37:42.435Z,5.79
2019-04-01T00:38:42.474Z,5.80
2019-04-01T00:39:42.409Z,5.82
2019-04-01T00:40:42.397Z,5.75
2019-04-01T00:41:42.385Z,5.71
2019-04-01T00:42:42.375Z,5.80
2019-04-01T00:43:42.410Z,5.71
2019-04-01T00:44:42.348Z,5.65
2019-04-01T00:45:42.334Z,5.69
2019-04-01T00:46:42.324Z,5.64
2019-04-01T00:47:42.325Z,5.66
2019-04-01T00:48:42.348Z,5.66
2019-04-01T00:49:42.284Z,5.62
2019-04-01T00:50:42.271Z,5.54
2019-04-01T00:51:42.258Z,5.56
2019-04-01T00:52:42.245Z,5.54
2019-04-01T00:53:42.286Z,5.64
2019-04-01T00:54:42.221Z,5.48
2019-04-01T00:55:42.207Z,5.61
2019-04-01T00:56:42.194Z,5.47
2019-04-01T00:57:42.183Z,5.46
2019-04-01T00:58:42.221Z,5.44
2019-04-01T00:59:42.160Z,5.47
2019-04-01T01:00:42.144Z,5.41
2019-04-01T01:01:42.132Z,5.47
2019-04-01T01:02:42.119Z,5.41
2019-04-01T01:03:42.106Z,5.43
2019-04-01T01:04:42.144Z,5.39
2019-04-01T01:05:42.102Z,5.36
2019-04-01T01:06:42.074Z,5.39
2019-04-01T01:07:42.055Z,5.38
2019-04-01T01:08:42.065Z,5.29
2019-04-01T01:09:42.030Z,5.29
2019-04-01T01:10:42.067Z,5.28
2019-04-01T01:11:42.009Z,5.30
2019-04-01T01:12:41.992Z,5.32
2019-04-01T01:13:41.980Z,5.23
2019-04-01T01:14:41.969Z,5.23
2019-04-01T01:15:42.004Z,5.15
2019-04-01T01:16:41.941Z,5.17
2019-04-01T01:17:41.929Z,5.12
2019-04-01T01:18:41.915Z,5.08
2019-04-01T01:19:41.904Z,5.17
2019-04-01T01:20:41.939Z,5.11
2019-04-01T01:21:41.876Z,5.12
2019-04-01T01:22:41.863Z,5.11
2019-04-01T01:23:41.851Z,5.05
2019-04-01T01:24:41.843Z,5.08
2019-04-01T01:25:41.874Z,4.99
2019-04-01T01:26:41.812Z,5.00
2019-04-01T01:27:41.798Z,4.94
2019-04-01T01:28:41.786Z,4.93
2019-04-01T01:29:41.773Z,4.96
2019-04-01T01:30:41.810Z,4.94
2019-04-01T01:31:41.747Z,4.96
2019-04-01T01:32:41.735Z,4.90
2019-04-01T01:33:41.721Z,4.92
2019-04-01T01:34:41.708Z,4.92
2019-04-01T01:35:41.697Z,4.84
2019-04-01T01:36:41.682Z,4.89
2019-04-01T01:37:41.670Z,4.77
2019-04-01T01:38:41.657Z,4.73
2019-04-01T01:39:41.644Z,4.77
2019-04-01T01:40:41.632Z,4.78
2019-04-01T01:41:41.718Z,4.75
2019-04-01T01:42:41.605Z,4.73
2019-04-01T01:43:41.592Z,4.77
2019-04-01T01:44:41.581Z,4.70
2019-04-01T01:45:41.566Z,4.68
2019-04-01T01:46:41.553Z,4.66
2019-04-01T01:47:41.540Z,4.62
2019-04-01T01:48:41.527Z,4.55
2019-04-01T01:49:41.516Z,4.55
2019-04-01T01:50:41.502Z,4.59
2019-04-01T01:51:41.538Z,4.53
2019-04-01T01:52:41.476Z,4.59
2019-04-01T01:53:41.848Z,4.56
2019-04-01T01:54:41.453Z,4.58
2019-04-01T01:55:41.435Z,4.49
2019-04-01T01:56:41.424Z,4.55
2019-04-01T01:57:41.411Z,4.56
2019-04-01T01:58:41.400Z,4.52
2019-04-01T01:59:41.385Z,4.44
2019-04-01T02:00:41.371Z,4.49
2019-04-01T02:01:41.408Z,4.50
2019-04-01T02:02:41.347Z,4.59
2019-04-01T02:03:41.331Z,4.42
2019-04-01T02:04:41.320Z,4.44
2019-04-01T02:05:41.306Z,4.42
2019-04-01T02:06:41.347Z,4.41
2019-04-01T02:07:41.280Z,4.48
2019-04-01T02:08:41.267Z,4.42
2019-04-01T02:09:41.257Z,4.32
2019-04-01T02:10:41.241Z,4.35
2019-04-01T02:11:41.278Z,4.28
2019-04-01T02:12:41.226Z,4.30
2019-04-01T02:13:41.202Z,4.28
2019-04-01T02:14:41.190Z,4.34
2019-04-01T02:15:41.176Z,4.37
2019-04-01T02:16:41.214Z,4.35
2019-04-01T02:17:41.150Z,4.40
2019-04-01T02:18:41.142Z,4.35
2019-04-01T02:19:41.123Z,4.34
2019-04-01T02:20:41.111Z,4.28
2019-04-01T02:21:41.097Z,4.37
2019-04-01T02:22:41.091Z,4.16
2019-04-01T02:23:41.074Z,4.24
2019-04-01T02:24:41.060Z,4.32
2019-04-01T02:25:41.045Z,4.19
2019-04-01T02:26:41.032Z,4.12
2019-04-01T02:27:41.024Z,4.22
2019-04-01T02:28:41.056Z,4.10
2019-04-01T02:29:40.993Z,4.06
2019-04-01T02:30:40.981Z,4.10
2019-04-01T02:31:41.047Z,4.13
2019-04-01T02:32:40.970Z,4.12
2019-04-01T02:33:40.993Z,4.12
2019-04-01T02:34:40.928Z,3.95
2019-04-01T02:35:40.919Z,4.06
2019-04-01T02:36:40.903Z,3.95
2019-04-01T02:37:40.889Z,3.98
2019-04-01T02:38:40.925Z,3.98
2019-04-01T02:39:40.862Z,3.98
2019-04-01T02:40:40.850Z,3.95
2019-04-01T02:41:40.841Z,3.96
2019-04-01T02:42:40.823Z,3.84
2019-04-01T02:43:40.859Z,3.94
2019-04-01T02:44:40.796Z,3.98
2019-04-01T02:45:40.785Z,3.91
2019-04-01T02:46:40.770Z,3.86
2019-04-01T02:47:40.756Z,3.88
2019-04-01T02:48:40.795Z,4.01
2019-04-01T02:49:40.747Z,3.98
2019-04-01T02:50:40.720Z,4.05
2019-04-01T02:51:40.704Z,3.96
2019-04-01T02:52:40.703Z,3.91
2019-04-01T02:53:40.685Z,3.98
2019-04-01T02:54:40.674Z,3.87
2019-04-01T02:55:40.651Z,3.96
2019-04-01T02:56:40.639Z,3.95
2019-04-01T02:57:40.634Z,3.94
2019-04-01T02:58:40.663Z,3.94
2019-04-01T02:59:40.602Z,3.91
2019-04-01T03:00:40.586Z,3.88
2019-04-01T03:01:40.574Z,3.91
2019-04-01T03:02:40.560Z,3.78
2019-04-01T03:03:40.605Z,3.83
2019-04-01T03:04:40.532Z,3.81
2019-04-01T03:05:40.519Z,3.84
2019-04-01T03:06:40.508Z,3.80
2019-04-01T03:07:40.493Z,3.87
2019-04-01T03:08:40.488Z,3.77
2019-04-01T03:09:40.466Z,3.70
2019-04-01T03:10:40.454Z,3.59
2019-04-01T03:11:40.441Z,3.66
2019-04-01T03:12:40.427Z,3.66
2019-04-01T03:13:40.433Z,3.62
2019-04-01T03:14:40.400Z,3.60
2019-04-01T03:15:40.386Z,3.56
2019-04-01T03:16:40.373Z,3.55
2019-04-01T03:17:40.361Z,3.55
2019-04-01T03:18:40.347Z,3.51
2019-04-01T03:19:40.335Z,3.55
2019-04-01T03:20:40.323Z,3.62
2019-04-01T03:21:40.316Z,3.55
2019-04-01T03:22:40.294Z,3.63
2019-04-01T03:23:40.330Z,3.58
2019-04-01T03:24:40.268Z,3.55
2019-04-01T03:25:40.254Z,3.62
2019-04-01T03:26:40.243Z,3.58
2019-04-01T03:27:40.240Z,3.58
2019-04-01T03:28:40.264Z,3.48
2019-04-01T03:29:40.200Z,3.42
2019-04-01T03:30:40.187Z,3.48
2019-04-01T03:31:40.174Z,3.40
2019-04-01T03:32:44.503Z,3.36
2019-04-01T03:33:40.199Z,3.29
2019-04-01T03:34:40.134Z,3.19
2019-04-01T03:35:40.121Z,3.21
2019-04-01T03:36:40.106Z,3.21
2019-04-01T03:37:40.094Z,3.22
2019-04-01T03:38:40.091Z,3.22
2019-04-01T03:39:40.117Z,3.22
2019-04-01T03:40:40.054Z,3.19
2019-04-01T03:41:40.041Z,3.13
2019-04-01T03:42:40.032Z,3.13
2019-04-01T03:43:40.018Z,3.11
2019-04-01T03:44:40.001Z,3.08
2019-04-01T03:45:40.038Z,3.18
2019-04-01T03:46:39.975Z,3.19
2019-04-01T03:47:39.961Z,3.13
2019-04-01T03:48:39.963Z,3.11
2019-04-01T03:49:39.935Z,3.21
2019-04-01T03:50:39.921Z,3.08
2019-04-01T03:51:39.906Z,3.13
2019-04-01T03:52:39.894Z,3.10
2019-04-01T03:53:39.886Z,3.11
2019-04-01T03:54:39.867Z,3.16
2019-04-01T03:55:39.903Z,3.08
2019-04-01T03:56:39.844Z,3.14
2019-04-01T03:57:39.830Z,3.04
2019-04-01T03:58:39.822Z,3.01
2019-04-01T03:59:39.801Z,3.03
2019-04-01T04:00:39.787Z,3.01
2019-04-01T04:01:39.773Z,3.01
2019-04-01T04:02:39.759Z,3.04
2019-04-01T04:03:39.751Z,3.07
2019-04-01T04:04:39.745Z,3.05
2019-04-01T04:05:39.719Z,3.03
2019-04-01T04:06:39.706Z,3.01
2019-04-01T04:07:39.692Z,2.98
2019-04-01T04:08:39.678Z,3.07
2019-04-01T04:09:39.666Z,3.05
2019-04-01T04:10:39.651Z,3.03
2019-04-01T04:11:39.688Z,3.05
2019-04-01T04:12:39.629Z,3.05
2019-04-01T04:13:39.611Z,3.07
2019-04-01T04:14:39.598Z,2.98
2019-04-01T04:15:39.595Z,3.03
2019-04-01T04:16:39.569Z,2.98
2019-04-01T04:17:39.560Z,2.98
2019-04-01T04:18:39.544Z,2.92
2019-04-01T04:19:39.529Z,2.87
2019-04-01T04:20:39.519Z,2.93
2019-04-01T04:21:39.554Z,2.89
2019-04-01T04:22:39.495Z,2.93
2019-04-01T04:23:39.474Z,2.90
2019-04-01T04:24:39.468Z,2.80
2019-04-01T04:25:39.453Z,2.85
2019-04-01T04:26:39.486Z,2.83
2019-04-01T04:27:39.421Z,2.85
2019-04-01T04:28:39.407Z,2.97
2019-04-01T04:29:39.407Z,2.93
2019-04-01T04:30:39.382Z,3.01
2019-04-01T04:31:39.417Z,2.97
2019-04-01T04:32:39.354Z,2.97
2019-04-01T04:33:39.340Z,3.00
2019-04-01T04:34:39.326Z,3.00
2019-04-01T04:35:39.323Z,3.04
2019-04-01T04:36:39.349Z,3.05
2019-04-01T04:37:39.286Z,2.98
2019-04-01T04:38:39.272Z,2.95
2019-04-01T04:39:39.258Z,2.95
2019-04-01T04:40:41.056Z,2.98
2019-04-01T04:41:39.281Z,2.83
2019-04-01T04:42:39.218Z,2.87
2019-04-01T04:43:39.203Z,2.92
2019-04-01T04:44:39.191Z,2.90
2019-04-01T04:45:39.176Z,2.93
2019-04-01T04:46:39.213Z,2.89
2019-04-01T04:47:39.150Z,2.80
2019-04-01T04:48:39.135Z,2.87
2019-04-01T04:49:39.124Z,2.86
2019-04-01T04:50:39.108Z,2.87
2019-04-01T04:51:39.094Z,2.85
2019-04-01T04:52:39.130Z,2.87
2019-04-01T04:53:39.066Z,2.89
2019-04-01T04:54:39.053Z,2.86
2019-04-01T04:55:39.038Z,2.89
2019-04-01T04:56:39.025Z,2.87
2019-04-01T04:57:39.012Z,2.75
2019-04-01T04:58:39.049Z,2.79
2019-04-01T04:59:38.984Z,2.89
2019-04-01T05:00:38.973Z,2.86
2019-04-01T05:01:38.975Z,2.89
2019-04-01T05:02:38.949Z,2.86
2019-04-01T05:03:38.986Z,2.82
2019-04-01T05:04:38.919Z,2.79
2019-04-01T05:05:38.902Z,2.83
2019-04-01T05:06:38.893Z,2.86
2019-04-01T05:07:38.876Z,2.79
2019-04-01T05:08:38.911Z,2.87
2019-04-01T05:09:38.847Z,2.79
2019-04-01T05:10:38.834Z,2.77
2019-04-01T05:11:38.821Z,2.75
2019-04-01T05:12:38.807Z,2.75
2019-04-01T05:13:38.844Z,2.80
2019-04-01T05:14:38.779Z,2.72
2019-04-01T05:15:38.766Z,2.83
2019-04-01T05:16:38.753Z,2.80
2019-04-01T05:17:38.738Z,2.79
2019-04-01T05:18:38.724Z,2.80
2019-04-01T05:19:38.710Z,2.77
2019-04-01T05:20:38.697Z,2.71
2019-04-01T05:21:38.683Z,2.80
2019-04-01T05:22:38.670Z,2.83
2019-04-01T05:23:38.656Z,2.79
2019-04-01T05:24:38.692Z,2.83
2019-04-01T05:25:38.629Z,2.77
2019-04-01T05:26:38.615Z,2.74
2019-04-01T05:27:38.601Z,2.83
2019-04-01T05:28:38.587Z,2.77
2019-04-01T05:29:38.624Z,2.80
2019-04-01T05:30:38.560Z,2.80
2019-04-01T05:31:38.547Z,2.72
2019-04-01T05:32:38.533Z,2.75
2019-04-01T05:33:38.520Z,2.83
2019-04-01T05:34:38.556Z,2.75
2019-04-01T05:35:38.492Z,2.72
2019-04-01T05:36:38.483Z,2.77
2019-04-01T05:37:38.466Z,2.87
2019-04-01T05:38:38.452Z,2.80
2019-04-01T05:39:38.490Z,2.75
2019-04-01T05:40:38.424Z,2.82
2019-04-01T05:41:38.411Z,2.87
2019-04-01T05:42:38.402Z,2.89
2019-04-01T05:43:38.384Z,2.86
2019-04-01T05:44:38.370Z,2.82
2019-04-01T05:45:38.359Z,2.90
2019-04-01T05:46:38.344Z,3.00
2019-04-01T05:47:38.337Z,3.03
2019-04-01T05:48:38.317Z,3.01
2019-04-01T05:49:38.357Z,3.01
2019-04-01T05:50:38.294Z,3.16
2019-04-01T05:51:38.277Z,3.11
2019-04-01T05:52:38.264Z,3.10
2019-04-01T05:53:38.250Z,3.19
2019-04-01T05:54:38.212Z,3.10
2019-04-01T05:55:38.198Z,3.23
2019-04-01T05:56:38.185Z,3.26
2019-04-01T05:57:38.173Z,3.28
2019-04-01T05:58:38.161Z,3.29
2019-04-01T05:59:38.152Z,3.29
2019-04-01T06:00:38.133Z,3.31
2019-04-01T06:01:38.119Z,3.37
2019-04-01T06:02:38.106Z,3.34
2019-04-01T06:03:38.093Z,3.29
2019-04-01T06:04:38.079Z,3.36
2019-04-01T06:05:38.067Z,3.37
2019-04-01T06:06:38.054Z,3.37
2019-04-01T06:07:38.040Z,3.40
2019-04-01T06:08:38.027Z,3.41
2019-04-01T06:09:38.016Z,3.53
2019-04-01T06:10:38.004Z,3.45
2019-04-01T06:11:37.989Z,3.59
2019-04-01T06:12:37.975Z,3.68
2019-04-01T06:13:37.963Z,3.70
2019-04-01T06:14:37.950Z,3.74
2019-04-01T06:15:37.936Z,3.77
2019-04-01T06:16:37.924Z,3.84
2019-04-01T06:17:37.911Z,3.94
2019-04-01T06:18:37.898Z,3.91
2019-04-01T06:19:37.885Z,4.01
2019-04-01T06:20:37.872Z,4.10
2019-04-01T06:21:37.859Z,4.08
2019-04-01T06:22:37.847Z,4.08
2019-04-01T06:23:37.834Z,4.17
2019-04-01T06:24:37.821Z,4.14
2019-04-01T06:25:37.808Z,4.19
2019-04-01T06:26:37.796Z,4.23
2019-04-01T06:27:37.782Z,4.38
2019-04-01T06:28:37.770Z,4.37
2019-04-01T06:29:37.757Z,4.41
2019-04-01T06:30:37.745Z,4.44
2019-04-01T06:31:37.733Z,4.49
2019-04-01T06:32:37.722Z,4.59
2019-04-01T06:33:37.707Z,4.63
2019-04-01T06:34:52.088Z,4.63
2019-04-01T06:35:37.682Z,4.70
2019-04-01T06:36:38.924Z,4.77
2019-04-01T06:37:37.659Z,4.93
2019-04-01T06:38:37.645Z,4.89
2019-04-01T06:39:37.632Z,4.87
2019-04-01T06:40:37.628Z,4.89
2019-04-01T06:41:37.607Z,4.87
2019-04-01T06:42:37.595Z,4.96
2019-04-01T06:43:37.582Z,5.00
2019-04-01T06:44:37.571Z,5.11
2019-04-01T06:45:37.558Z,5.08
2019-04-01T06:46:37.547Z,5.11
2019-04-01T06:47:37.533Z,5.14
2019-04-01T06:48:37.522Z,5.20
2019-04-01T06:49:37.511Z,5.30
2019-04-01T06:50:37.503Z,5.28
2019-04-01T06:51:37.504Z,5.29
2019-04-01T06:52:37.474Z,5.43
2019-04-01T06:53:37.461Z,5.41
2019-04-01T06:54:37.450Z,5.43
2019-04-01T06:55:37.438Z,5.53
2019-04-01T06:56:37.427Z,5.56
2019-04-01T06:57:37.414Z,5.61
2019-04-01T06:58:37.403Z,5.65
2019-04-01T06:59:37.390Z,5.72
2019-04-01T07:00:37.380Z,5.83
2019-04-01T07:01:37.369Z,5.93
2019-04-01T07:02:37.355Z,5.94
2019-04-01T07:03:37.343Z,6.01
2019-04-01T07:04:37.330Z,5.97
2019-04-01T07:05:37.321Z,5.99
2019-04-01T07:06:37.309Z,5.98
2019-04-01T07:07:37.295Z,6.14
2019-04-01T07:08:37.284Z,6.09
2019-04-01T07:09:37.273Z,6.14
2019-04-01T07:10:37.262Z,6.26
2019-04-01T07:11:37.362Z,6.39
2019-04-01T07:12:37.249Z,6.49
2019-04-01T07:13:39.948Z,6.60
2019-04-01T07:14:37.216Z,6.60
2019-04-01T07:15:37.211Z,6.67
2019-04-01T07:16:40.038Z,6.75
2019-04-01T07:17:37.183Z,6.82
2019-04-01T07:18:37.172Z,6.85
2019-04-01T07:19:37.159Z,6.97
2019-04-01T07:20:37.151Z,6.97
2019-04-01T07:21:37.140Z,7.03
2019-04-01T07:22:37.126Z,7.11
2019-04-01T07:23:37.115Z,7.20
2019-04-01T07:24:37.104Z,7.24
2019-04-01T07:25:37.093Z,7.24
2019-04-01T07:26:37.094Z,7.43
2019-04-01T07:27:37.072Z,7.47
2019-04-01T07:28:37.160Z,7.54
2019-04-01T07:29:37.050Z,7.58
2019-04-01T07:30:37.070Z,7.63
2019-04-01T07:31:37.045Z,7.73
2019-04-01T07:32:37.017Z,7.88
2019-04-01T07:33:37.008Z,7.93
2019-04-01T07:34:36.996Z,7.93
2019-04-01T07:35:36.985Z,7.98
2019-04-01T07:36:36.975Z,8.16
2019-04-01T07:37:36.965Z,8.18
2019-04-01T07:38:36.956Z,8.37
2019-04-01T07:39:36.949Z,8.48
2019-04-01T07:40:36.936Z,8.64
2019-04-01T07:41:36.927Z,8.85
2019-04-01T07:42:36.924Z,8.95
2019-04-01T07:43:36.911Z,8.94
2019-04-01T07:44:36.903Z,9.00
2019-04-01T07:45:36.893Z,9.10
2019-04-01T07:46:36.886Z,9.26
2019-04-01T07:47:36.877Z,9.39
2019-04-01T07:48:36.872Z,9.58
2019-04-01T07:49:36.953Z,9.68
2019-04-01T07:50:36.859Z,9.77
2019-04-01T07:51:38.583Z,9.79
2019-04-01T07:52:36.847Z,9.74
2019-04-01T07:53:36.842Z,9.89
2019-04-01T07:54:36.841Z,9.91
2019-04-01T07:55:36.850Z,10.01
2019-04-01T07:56:36.827Z,10.07
2019-04-01T07:57:36.825Z,10.19
2019-04-01T07:58:36.818Z,10.41
2019-04-01T07:59:36.813Z,10.59
2019-04-01T08:00:36.809Z,10.67
2019-04-01T08:01:36.806Z,10.68
2019-04-01T08:02:36.805Z,10.63
2019-04-01T08:03:36.798Z,10.69
2019-04-01T08:04:36.796Z,10.63
2019-04-01T08:05:36.794Z,10.75
2019-04-01T08:06:36.793Z,10.87
2019-04-01T08:07:36.787Z,10.94
2019-04-01T08:08:36.784Z,10.90
2019-04-01T08:09:36.785Z,11.14
2019-04-01T08:10:36.779Z,11.14
2019-04-01T08:11:36.776Z,11.12
2019-04-01T08:12:36.774Z,11.18
2019-04-01T08:13:36.772Z,11.22
2019-04-01T08:14:36.770Z,11.36
2019-04-01T08:15:36.767Z,11.59
2019-04-01T08:16:36.766Z,11.80
2019-04-01T08:17:36.765Z,11.90
2019-04-01T08:18:36.764Z,12.15
2019-04-01T08:19:36.761Z,12.31
2019-04-01T08:20:36.764Z,12.31
2019-04-01T08:21:36.759Z,12.54
2019-04-01T08:22:36.758Z,12.58
2019-04-01T08:23:36.757Z,12.65
2019-04-01T08:24:36.767Z,12.57
2019-04-01T08:25:36.755Z,12.29
2019-04-01T08:26:36.756Z,12.36
2019-04-01T08:27:36.756Z,12.27
2019-04-01T08:28:36.754Z,12.36
2019-04-01T08:29:36.753Z,11.99
2019-04-01T08:30:36.753Z,11.95
2019-04-01T08:31:36.751Z,12.02
2019-04-01T08:32:36.750Z,12.28
2019-04-01T08:33:36.751Z,12.47
2019-04-01T08:34:36.800Z,12.58
2019-04-01T08:35:36.748Z,12.49
2019-04-01T08:36:36.748Z,12.45
2019-04-01T08:37:40.008Z,12.53
2019-04-01T08:38:36.748Z,12.50
2019-04-01T08:39:36.748Z,12.79
2019-04-01T08:40:36.748Z,12.65
2019-04-01T08:41:36.748Z,12.86
2019-04-01T08:42:36.760Z,12.87
2019-04-01T08:43:36.751Z,12.98
2019-04-01T08:44:36.749Z,13.23
2019-04-01T08:45:36.749Z,13.28
2019-04-01T08:46:36.750Z,13.27
2019-04-01T08:47:36.752Z,13.08
2019-04-01T08:48:36.752Z,13.16
2019-04-01T08:49:36.757Z,13.33
2019-04-01T08:50:36.755Z,13.49
2019-04-01T08:51:36.758Z,13.57
2019-04-01T08:52:36.757Z,13.62
2019-04-01T08:53:36.758Z,13.83
2019-04-01T08:54:36.761Z,13.86
2019-04-01T08:55:36.760Z,13.90
2019-04-01T08:56:38.008Z,13.63
2019-04-01T08:57:36.769Z,13.59
2019-04-01T08:58:36.766Z,13.65
2019-04-01T08:59:36.789Z,13.87
2019-04-01T09:00:36.776Z,13.62
2019-04-01T09:01:36.774Z,13.72
2019-04-01T09:02:36.772Z,13.78
2019-04-01T09:03:36.774Z,14.18
2019-04-01T09:04:36.777Z,14.28
2019-04-01T09:05:36.779Z,14.28
2019-04-01T09:06:36.780Z,14.08
2019-04-01T09:07:36.809Z,13.97
2019-04-01T09:08:36.784Z,13.90
2019-04-01T09:09:36.837Z,14.04
2019-04-01T09:10:36.790Z,14.23
2019-04-01T09:11:38.541Z,14.26
2019-04-01T09:12:36.793Z,14.29
2019-04-01T09:13:36.796Z,14.25
2019-04-01T09:14:36.801Z,14.23
2019-04-01T09:15:36.799Z,14.23
2019-04-01T09:16:36.802Z,14.29
2019-04-01T09:17:40.057Z,14.29
2019-04-01T09:18:36.808Z,14.43
2019-04-01T09:19:36.810Z,14.50
2019-04-01T09:20:36.815Z,14.47
2019-04-01T09:21:36.816Z,14.43
2019-04-01T09:22:36.818Z,14.48
2019-04-01T09:23:36.826Z,14.44
2019-04-01T09:24:36.874Z,14.50
2019-04-01T09:25:36.826Z,14.66
2019-04-01T09:26:36.830Z,14.45
2019-04-01T09:27:36.831Z,14.28
2019-04-01T09:28:36.835Z,14.44
2019-04-01T09:29:36.838Z,14.44
2019-04-01T09:30:36.841Z,14.51
2019-04-01T09:31:36.843Z,14.36
2019-04-01T09:32:36.849Z,14.60
2019-04-01T09:33:36.849Z,14.55
2019-04-01T09:34:36.854Z,14.59
2019-04-01T09:35:40.605Z,14.79
2019-04-01T09:36:36.857Z,14.88
2019-04-01T09:37:36.860Z,14.94
2019-04-01T09:38:36.863Z,15.04
2019-04-01T09:39:36.915Z,15.19
2019-04-01T09:40:36.869Z,14.96
2019-04-01T09:41:36.876Z,15.18
2019-04-01T09:42:36.876Z,15.35
2019-04-01T09:43:36.879Z,15.19
2019-04-01T09:44:37.378Z,15.15
2019-04-01T09:45:36.887Z,15.06
2019-04-01T09:46:36.890Z,15.21
2019-04-01T09:47:36.892Z,15.42
2019-04-01T09:48:36.896Z,15.47
2019-04-01T09:49:36.917Z,15.43
2019-04-01T09:50:36.903Z,15.46
2019-04-01T09:51:47.797Z,15.58
2019-04-01T09:52:36.910Z,15.52
2019-04-01T09:53:36.914Z,15.62
2019-04-01T09:54:36.967Z,15.75
2019-04-01T09:55:36.921Z,15.91
2019-04-01T09:56:36.925Z,16.13
2019-04-01T09:57:36.929Z,16.10
2019-04-01T09:58:36.933Z,16.01
2019-04-01T09:59:36.937Z,16.21
2019-04-01T10:00:36.941Z,16.39
2019-04-01T10:01:36.946Z,16.53
2019-04-01T10:02:36.950Z,16.23
2019-04-01T10:03:36.954Z,16.12
2019-04-01T10:04:36.959Z,16.24
2019-04-01T10:05:36.965Z,16.39
2019-04-01T10:06:36.971Z,16.56
2019-04-01T10:07:37.098Z,16.86
2019-04-01T10:08:42.531Z,17.08
2019-04-01T10:09:37.002Z,17.31
2019-04-01T10:10:36.987Z,17.31
2019-04-01T10:11:36.995Z,17.29
2019-04-01T10:12:36.997Z,17.14
2019-04-01T10:13:37.004Z,17.09
2019-04-01T10:14:37.058Z,17.20
2019-04-01T10:15:37.015Z,17.26
2019-04-01T10:16:37.019Z,17.27
2019-04-01T10:17:37.027Z,17.36
2019-04-01T10:18:37.029Z,17.68
2019-04-01T10:19:37.038Z,17.72
2019-04-01T10:20:37.042Z,17.74
2019-04-01T10:21:37.049Z,17.56
2019-04-01T10:22:37.057Z,17.68
2019-04-01T10:23:37.059Z,17.79
2019-04-01T10:24:37.064Z,17.36
2019-04-01T10:25:37.070Z,17.51
2019-04-01T10:26:37.078Z,17.26
2019-04-01T10:27:37.082Z,17.31
2019-04-01T10:28:37.088Z,17.56
2019-04-01T10:29:37.096Z,17.63
2019-04-01T10:30:37.101Z,17.63
2019-04-01T10:31:37.111Z,17.34
2019-04-01T10:32:37.114Z,17.51
2019-04-01T10:33:37.120Z,17.59
2019-04-01T10:34:37.131Z,17.82
2019-04-01T10:35:37.131Z,17.86
2019-04-01T10:36:37.137Z,17.83
2019-04-01T10:37:37.144Z,17.79
2019-04-01T10:38:37.238Z,17.83
2019-04-01T10:39:37.154Z,17.85
2019-04-01T10:40:37.161Z,17.92
2019-04-01T10:41:37.195Z,17.67
2019-04-01T10:42:37.173Z,17.72
2019-04-01T10:43:37.178Z,17.83
2019-04-01T10:44:37.186Z,17.90
2019-04-01T10:45:37.199Z,18.07
2019-04-01T10:46:40.653Z,18.22
2019-04-01T10:47:37.242Z,18.19
2019-04-01T10:48:37.223Z,18.43
2019-04-01T10:49:37.269Z,18.55
2019-04-01T10:50:37.224Z,18.56
2019-04-01T10:51:37.233Z,18.43
2019-04-01T10:52:37.260Z,18.50
2019-04-01T10:53:37.242Z,18.60
2019-04-01T10:54:37.333Z,18.84
2019-04-01T10:55:37.256Z,18.89
2019-04-01T10:56:37.275Z,18.83
2019-04-01T10:57:37.305Z,18.75
2019-04-01T10:58:37.298Z,18.74
2019-04-01T10:59:37.293Z,18.84
2019-04-01T11:00:37.337Z,18.95
2019-04-01T11:01:37.339Z,19.07
2019-04-01T11:02:37.307Z,19.22
2019-04-01T11:03:37.412Z,19.24
2019-04-01T11:04:37.468Z,18.96
2019-04-01T11:05:37.382Z,18.59
2019-04-01T11:06:37.353Z,18.08
2019-04-01T11:07:37.339Z,17.98
2019-04-01T11:08:37.510Z,17.95
2019-04-01T11:09:38.585Z,18.13
2019-04-01T11:10:37.354Z,18.37
2019-04-01T11:11:37.359Z,18.58
2019-04-01T11:12:37.454Z,18.60
2019-04-01T11:13:37.372Z,18.75
2019-04-01T11:14:37.379Z,18.83
2019-04-01T11:15:37.385Z,19.00
2019-04-01T11:16:37.396Z,18.68
2019-04-01T11:17:37.398Z,18.50
2019-04-01T11:18:37.403Z,18.70
2019-04-01T11:19:37.409Z,19.02
2019-04-01T11:20:37.416Z,18.96
2019-04-01T11:21:37.423Z,19.16
2019-04-01T11:22:37.430Z,18.98
2019-04-01T11:23:37.435Z,19.02
2019-04-01T11:24:37.492Z,19.24
2019-04-01T11:25:37.448Z,19.26
2019-04-01T11:26:37.456Z,18.95
2019-04-01T11:27:37.466Z,19.15
2019-04-01T11:28:37.467Z,19.14
2019-04-01T11:29:37.474Z,19.24
2019-04-01T11:30:37.633Z,19.41
2019-04-01T11:31:37.504Z,19.62
2019-04-01T11:32:37.531Z,19.31
2019-04-01T11:33:37.555Z,19.21
2019-04-01T11:34:37.521Z,18.98
2019-04-01T11:35:37.571Z,18.71
2019-04-01T11:36:37.526Z,18.89
2019-04-01T11:37:37.535Z,18.74
2019-04-01T11:38:37.573Z,18.95
2019-04-01T11:39:37.558Z,18.60
2019-04-01T11:40:38.932Z,18.29
2019-04-01T11:41:37.554Z,17.78
2019-04-01T11:42:40.369Z,17.68
2019-04-01T11:43:37.575Z,17.78
2019-04-01T11:44:37.560Z,18.10
2019-04-01T11:45:37.593Z,18.52
2019-04-01T11:46:37.623Z,18.92
2019-04-01T11:47:37.609Z,19.09
2019-04-01T11:48:37.579Z,19.04
2019-04-01T11:49:37.583Z,18.95
2019-04-01T11:50:37.595Z,19.27
2019-04-01T11:51:40.012Z,19.71
2019-04-01T11:52:38.234Z,20.13
2019-04-01T11:53:37.668Z,20.28
2019-04-01T11:54:37.610Z,20.48
2019-04-01T11:55:37.615Z,20.69
2019-04-01T11:56:37.620Z,20.37
2019-04-01T11:57:37.626Z,20.14
2019-04-01T11:58:38.438Z,20.11
2019-04-01T11:59:38.101Z,19.96
2019-04-01T12:00:37.644Z,20.29
2019-04-01T12:01:37.649Z,20.41
2019-04-01T12:02:37.655Z,20.70
2019-04-01T12:03:37.660Z,20.74
2019-04-01T12:04:37.667Z,20.96
2019-04-01T12:05:37.674Z,20.85
2019-04-01T12:06:37.680Z,20.87
2019-04-01T12:07:37.685Z,20.92
2019-04-01T12:08:37.688Z,20.92
2019-04-01T12:09:37.784Z,21.02
2019-04-01T12:10:37.700Z,21.15
2019-04-01T12:11:37.705Z,21.05
2019-04-01T12:12:37.711Z,21.43
2019-04-01T12:13:37.725Z,21.06
2019-04-01T12:14:37.723Z,21.09
2019-04-01T12:15:37.728Z,20.97
2019-04-01T12:16:37.731Z,21.12
2019-04-01T12:17:41.403Z,20.84
2019-04-01T12:18:37.759Z,20.60
2019-04-01T12:19:37.754Z,20.52
2019-04-01T12:20:38.305Z,20.70
2019-04-01T12:21:41.358Z,20.62
2019-04-01T12:22:37.761Z,20.69
2019-04-01T12:23:37.767Z,20.63
2019-04-01T12:24:37.779Z,20.60
2019-04-01T12:25:38.450Z,20.78
2019-04-01T12:26:37.777Z,20.90
2019-04-01T12:27:37.794Z,20.97
2019-04-01T12:28:37.787Z,21.18
2019-04-01T12:29:37.792Z,20.58
2019-04-01T12:30:37.794Z,20.56
2019-04-01T12:31:37.799Z,20.84
2019-04-01T12:32:37.803Z,20.99
2019-04-01T12:33:37.805Z,21.21
2019-04-01T12:34:37.806Z,21.27
2019-04-01T12:35:37.809Z,21.20
2019-04-01T12:36:37.820Z,21.07
2019-04-01T12:37:37.816Z,21.11
2019-04-01T12:38:37.820Z,21.35
2019-04-01T12:39:37.826Z,21.27
2019-04-01T12:40:37.825Z,21.02
2019-04-01T12:41:37.828Z,21.06
2019-04-01T12:42:37.832Z,21.43
2019-04-01T12:43:37.833Z,21.99
2019-04-01T12:44:37.836Z,22.33
2019-04-01T12:45:37.840Z,22.38
2019-04-01T12:46:37.842Z,22.48
2019-04-01T12:47:37.845Z,22.43
2019-04-01T12:48:37.849Z,22.35
2019-04-01T12:49:37.857Z,22.35
2019-04-01T12:50:37.854Z,22.23
2019-04-01T12:51:37.856Z,22.33
2019-04-01T12:52:37.858Z,22.60
2019-04-01T12:53:37.861Z,22.84
2019-04-01T12:54:37.866Z,22.83
2019-04-01T12:55:37.866Z,23.09
2019-04-01T12:56:37.870Z,22.38
2019-04-01T12:57:37.871Z,22.08
2019-04-01T12:58:37.874Z,22.20
2019-04-01T12:59:37.875Z,22.45
2019-04-01T13:00:37.877Z,22.39
2019-04-01T13:01:37.880Z,22.47
2019-04-01T13:02:37.884Z,22.47
2019-04-01T13:03:37.884Z,22.63
2019-04-01T13:04:37.885Z,22.85
2019-04-01T13:05:37.888Z,23.12
2019-04-01T13:06:37.888Z,23.13
2019-04-01T13:07:37.889Z,23.59
2019-04-01T13:08:37.891Z,23.83